Time;durP1;ratioP1;P1;durP2;ratioP2;P2;SDS_P1;SDS_P2;PMS_P1;PMS_P2;Temp;Humidity;BMP_temperature;BMP_pressure;BME280_temperature;BME280_humidity;BME280_pressure;Samples;Min_cycle;Max_cycle;Signal;HPM_P1;HPM_P2
2023/07/05 00:02:23;;;;;;;12.60;8.52;;;;;;;;;;4990291;28;20034;-78
2023/07/05 00:04:49;;;;;;;8.90;8.00;;;;;;;;;;4989038;28;20041;-78
2023/07/05 00:07:15;;;;;;;12.98;8.30;;;;;;;;;;4989212;28;20456;-77
2023/07/05 00:09:41;;;;;;;12.93;7.80;;;;;;;;;;4990557;28;20038;-77
2023/07/05 00:12:08;;;;;;;10.52;8.90;;;;;;;;;;4990331;28;20044;-76
2023/07/05 00:14:34;;;;;;;9.48;8.60;;;;;;;;;;4992941;28;20124;-76
2023/07/05 00:17:00;;;;;;;15.50;8.43;;;;;;;;;;4992836;28;20042;-78
2023/07/05 00:19:26;;;;;;;14.82;8.55;;;;;;;;;;4993910;28;20053;-77
2023/07/05 00:21:52;;;;;;;11.40;8.93;;;;;;;;;;4994235;28;20034;-77
2023/07/05 00:24:18;;;;;;;9.60;8.38;;;;;;;;;;4993792;28;20034;-78
2023/07/05 00:26:44;;;;;;;11.73;8.00;;;;;;;;;;4992637;28;20046;-77
2023/07/05 00:29:11;;;;;;;14.48;8.43;;;;;;;;;;4992949;28;20038;-77
2023/07/05 00:31:38;;;;;;;12.43;8.73;;;;;;;;;;4994348;28;20203;-77
2023/07/05 00:34:04;;;;;;;12.27;8.27;;;;;;;;;;4998984;28;20038;-77
2023/07/05 00:36:30;;;;;;;15.88;9.00;;;;;;;;;;4995111;28;20471;-77
2023/07/05 00:38:56;;;;;;;12.57;9.13;;;;;;;;;;5000291;28;20049;-77
2023/07/05 00:41:22;;;;;;;20.67;9.45;;;;;;;;;;5007574;28;20042;-78
2023/07/05 00:43:48;;;;;;;17.88;8.60;;;;;;;;;;5007109;28;20061;-77
2023/07/05 00:46:24;;;;;;;9.57;8.00;;;;;;;;;;4994515;28;20517;-77
2023/07/05 00:48:50;;;;;;;19.38;9.00;;;;;;;;;;4993525;28;20460;-78
2023/07/05 00:51:17;;;;;;;12.50;8.85;;;;;;;;;;4991783;28;20049;-77
2023/07/05 00:53:43;;;;;;;13.15;8.70;;;;;;;;;;4992150;28;20046;-78
2023/07/05 00:56:20;;;;;;;17.40;8.85;;;;;;;;;;4975702;28;20121;-78
2023/07/05 00:58:46;;;;;;;13.68;9.10;;;;;;;;;;4993306;28;20050;-78
2023/07/05 01:01:12;;;;;;;15.50;8.27;;;;;;;;;;4993145;28;20026;-78
2023/07/05 01:03:38;;;;;;;8.80;7.93;;;;;;;;;;4991629;28;20049;-78
2023/07/05 01:06:06;;;;;;;14.52;8.95;;;;;;;;;;4991782;28;20034;-77
2023/07/05 01:08:32;;;;;;;13.35;8.30;;;;;;;;;;4991639;28;20049;-77
2023/07/05 01:11:05;;;;;;;18.67;9.68;;;;;;;;;;4992863;28;20532;-78
2023/07/05 01:13:34;;;;;;;12.82;9.07;;;;;;;;;;4975885;28;20038;-77
2023/07/05 01:16:04;;;;;;;11.07;9.23;;;;;;;;;;4991639;28;20038;-78
2023/07/05 01:18:53;;;;;;;11.67;8.80;;;;;;;;;;4991624;28;20042;-77
2023/07/05 01:21:24;;;;;;;16.70;9.13;;;;;;;;;;4964765;28;20509;-77
2023/07/05 01:23:53;;;;;;;10.60;8.82;;;;;;;;;;4991542;28;20058;-76
2023/07/05 01:26:35;;;;;;;15.68;8.98;;;;;;;;;;4990852;28;20031;-78
2023/07/05 01:29:06;;;;;;;10.07;8.57;;;;;;;;;;4992628;28;20050;-78
2023/07/05 01:31:45;;;;;;;11.75;8.55;;;;;;;;;;4992438;28;20038;-76
2023/07/05 01:34:19;;;;;;;10.10;9.23;;;;;;;;;;4992695;28;20454;-78
2023/07/05 01:36:45;;;;;;;13.00;8.60;;;;;;;;;;4991361;28;20031;-77
2023/07/05 01:39:11;;;;;;;9.70;8.63;;;;;;;;;;4994628;28;20038;-78
2023/07/05 01:41:37;;;;;;;9.25;8.23;;;;;;;;;;4994195;28;20061;-79
2023/07/05 01:44:03;;;;;;;14.00;8.70;;;;;;;;;;4994608;28;20038;-78
2023/07/05 01:46:50;;;;;;;12.35;8.38;;;;;;;;;;4992356;28;20034;-79
2023/07/05 01:49:46;;;;;;;12.98;8.05;;;;;;;;;;4982048;28;20050;-77
2023/07/05 01:52:15;;;;;;;14.75;8.18;;;;;;;;;;4923533;28;20096;-78
2023/07/05 01:54:44;;;;;;;14.55;8.05;;;;;;;;;;4990833;28;20065;-77
2023/07/05 01:57:11;;;;;;;10.23;8.35;;;;;;;;;;4991188;28;20030;-78
2023/07/05 01:59:39;;;;;;;9.90;8.48;;;;;;;;;;4990643;28;20042;-78
2023/07/05 02:02:05;;;;;;;11.27;8.40;;;;;;;;;;4974521;28;20391;-77
2023/07/05 02:04:35;;;;;;;11.18;7.82;;;;;;;;;;4991868;28;20045;-78
2023/07/05 02:07:03;;;;;;;10.68;8.23;;;;;;;;;;4991941;28;20042;-79
2023/07/05 02:09:29;;;;;;;12.25;7.68;;;;;;;;;;4991668;28;20046;-78
2023/07/05 02:11:56;;;;;;;9.00;8.10;;;;;;;;;;4991739;28;20058;-77
2023/07/05 02:14:23;;;;;;;9.98;7.97;;;;;;;;;;4990189;28;20050;-79
2023/07/05 02:16:49;;;;;;;8.52;7.68;;;;;;;;;;4991950;28;20030;-77
2023/07/05 02:19:17;;;;;;;12.02;7.82;;;;;;;;;;4991866;28;20042;-79
2023/07/05 02:21:43;;;;;;;9.80;7.40;;;;;;;;;;4991403;28;20408;-77
2023/07/05 02:24:09;;;;;;;11.00;7.78;;;;;;;;;;4991680;28;20038;-77
2023/07/05 02:26:35;;;;;;;9.45;8.20;;;;;;;;;;4990067;28;20045;-77
2023/07/05 02:29:01;;;;;;;9.63;8.10;;;;;;;;;;4990190;28;20045;-78
2023/07/05 02:31:29;;;;;;;11.57;7.30;;;;;;;;;;4991260;28;20034;-78
2023/07/05 02:33:55;;;;;;;15.25;7.72;;;;;;;;;;4991469;28;20093;-77
2023/07/05 02:36:23;;;;;;;10.02;7.57;;;;;;;;;;4973544;28;20089;-78
2023/07/05 02:38:50;;;;;;;11.77;7.30;;;;;;;;;;4990085;28;20077;-78
2023/07/05 02:41:16;;;;;;;9.27;8.10;;;;;;;;;;4973695;28;20121;-78
2023/07/05 02:43:43;;;;;;;13.93;7.85;;;;;;;;;;4991079;28;20049;-78
2023/07/05 02:46:09;;;;;;;11.98;8.65;;;;;;;;;;4990112;28;20034;-78
2023/07/05 02:48:35;;;;;;;13.85;8.15;;;;;;;;;;4989803;28;20436;-78
2023/07/05 02:51:01;;;;;;;16.30;8.48;;;;;;;;;;4991090;28;20539;-77
2023/07/05 02:53:27;;;;;;;9.90;7.78;;;;;;;;;;4973504;28;20054;-78
2023/07/05 02:55:54;;;;;;;9.88;7.85;;;;;;;;;;4991124;28;20040;-77
2023/07/05 02:58:20;;;;;;;11.52;8.00;;;;;;;;;;4990927;28;20034;-77
2023/07/05 03:00:48;;;;;;;8.43;6.93;;;;;;;;;;4989519;28;20034;-78
2023/07/05 03:03:14;;;;;;;8.85;8.05;;;;;;;;;;4989755;28;20128;-78
2023/07/05 03:05:40;;;;;;;12.07;8.05;;;;;;;;;;4989543;28;20030;-78
2023/07/05 03:08:07;;;;;;;8.45;7.75;;;;;;;;;;4990996;28;20044;-78
2023/07/05 03:10:38;;;;;;;9.68;8.00;;;;;;;;;;4989291;28;20101;-78
2023/07/05 03:13:04;;;;;;;11.63;8.30;;;;;;;;;;4989636;28;20033;-78
2023/07/05 03:15:30;;;;;;;10.88;8.52;;;;;;;;;;4989575;28;20042;-79
2023/07/05 03:17:56;;;;;;;12.07;7.95;;;;;;;;;;4957283;28;20031;-78
2023/07/05 03:20:23;;;;;;;8.70;7.10;;;;;;;;;;4989788;28;20457;-78
2023/07/05 03:22:50;;;;;;;9.55;7.53;;;;;;;;;;4989446;28;20073;-78
2023/07/05 03:25:16;;;;;;;10.55;7.72;;;;;;;;;;4990842;28;20042;-76
2023/07/05 03:27:42;;;;;;;14.23;8.18;;;;;;;;;;4989129;28;20026;-78
2023/07/05 03:30:08;;;;;;;8.63;7.90;;;;;;;;;;4989590;28;20046;-77
2023/07/05 03:32:34;;;;;;;14.25;8.43;;;;;;;;;;4991062;28;20429;-78
2023/07/05 03:35:00;;;;;;;16.58;8.68;;;;;;;;;;4990335;28;20049;-77
2023/07/05 03:37:27;;;;;;;13.15;8.70;;;;;;;;;;4990674;28;20042;-79
2023/07/05 03:39:53;;;;;;;10.18;8.10;;;;;;;;;;4993932;28;20042;-78
2023/07/05 03:42:19;;;;;;;9.75;8.82;;;;;;;;;;4997630;28;20049;-79
2023/07/05 03:44:45;;;;;;;16.42;8.90;;;;;;;;;;5002374;28;20072;-77
2023/07/05 03:47:11;;;;;;;12.38;8.35;;;;;;;;;;5002828;28;20038;-78
2023/07/05 03:49:37;;;;;;;16.30;8.48;;;;;;;;;;4998774;28;20034;-78
2023/07/05 03:52:04;;;;;;;13.23;8.13;;;;;;;;;;4994959;28;20077;-78
2023/07/05 03:54:30;;;;;;;13.63;8.65;;;;;;;;;;4993231;28;20046;-78
2023/07/05 03:56:56;;;;;;;22.48;8.05;;;;;;;;;;4993169;28;20061;-79
2023/07/05 03:59:22;;;;;;;8.00;7.20;;;;;;;;;;4994373;28;20429;-79
2023/07/05 04:01:48;;;;;;;10.50;7.70;;;;;;;;;;4994080;28;20073;-78
2023/07/05 04:04:14;;;;;;;10.55;7.45;;;;;;;;;;4994321;28;20026;-77
2023/07/05 04:06:40;;;;;;;10.95;7.93;;;;;;;;;;4992805;28;20057;-78
2023/07/05 04:09:06;;;;;;;16.60;8.32;;;;;;;;;;4992917;28;20040;-78
2023/07/05 04:11:32;;;;;;;13.70;8.45;;;;;;;;;;4994326;28;20045;-78
2023/07/05 04:13:59;;;;;;;9.13;7.93;;;;;;;;;;4992806;28;20046;-78
2023/07/05 04:16:25;;;;;;;12.75;7.75;;;;;;;;;;4994152;28;20038;-78
2023/07/05 04:18:52;;;;;;;9.35;7.43;;;;;;;;;;4993709;28;20181;-78
2023/07/05 04:21:18;;;;;;;9.52;7.10;;;;;;;;;;4992544;28;20069;-79
2023/07/05 04:23:44;;;;;;;11.25;7.30;;;;;;;;;;4993594;28;20038;-78
2023/07/05 04:26:10;;;;;;;13.50;7.50;;;;;;;;;;4992699;28;20033;-78
2023/07/05 04:28:36;;;;;;;11.95;7.65;;;;;;;;;;4993563;28;20034;-78
2023/07/05 04:31:02;;;;;;;9.45;6.50;;;;;;;;;;4993891;28;20050;-78
2023/07/05 04:33:29;;;;;;;8.27;7.15;;;;;;;;;;4993647;28;20034;-78
2023/07/05 04:35:56;;;;;;;7.78;6.82;;;;;;;;;;4993613;28;20046;-77
2023/07/05 04:38:22;;;;;;;7.82;7.05;;;;;;;;;;4993568;28;20501;-77
2023/07/05 04:40:48;;;;;;;13.18;7.20;;;;;;;;;;4993461;28;20501;-80
2023/07/05 04:43:14;;;;;;;7.90;6.78;;;;;;;;;;4993519;28;20232;-77
2023/07/05 04:45:40;;;;;;;13.15;6.55;;;;;;;;;;4993218;28;20038;-78
2023/07/05 04:48:07;;;;;;;9.05;6.70;;;;;;;;;;4993467;28;20034;-79
2023/07/05 04:50:33;;;;;;;7.10;6.40;;;;;;;;;;4991994;28;20120;-77
2023/07/05 04:52:59;;;;;;;10.13;6.78;;;;;;;;;;4993119;28;20137;-77
2023/07/05 04:55:25;;;;;;;9.15;6.38;;;;;;;;;;4993412;28;20042;-78
2023/07/05 04:57:51;;;;;;;13.05;6.85;;;;;;;;;;4993077;28;20038;-78
2023/07/05 05:00:18;;;;;;;11.23;6.70;;;;;;;;;;4992437;28;20049;-79
2023/07/05 05:02:44;;;;;;;7.65;6.70;;;;;;;;;;4992892;28;20062;-79
2023/07/05 05:05:10;;;;;;;11.07;6.10;;;;;;;;;;4993298;28;20066;-78
2023/07/05 05:07:36;;;;;;;10.30;6.25;;;;;;;;;;4992713;28;20170;-78
2023/07/05 05:10:02;;;;;;;7.70;6.07;;;;;;;;;;4992986;28;20038;-77
2023/07/05 05:12:31;;;;;;;9.70;6.18;;;;;;;;;;4991912;28;20413;-77
2023/07/05 05:14:57;;;;;;;8.50;6.03;;;;;;;;;;4991623;28;20030;-78
2023/07/05 05:17:23;;;;;;;9.55;6.20;;;;;;;;;;4975522;28;20121;-78
2023/07/05 05:19:49;;;;;;;8.93;6.10;;;;;;;;;;4992646;28;20571;-77
2023/07/05 05:22:15;;;;;;;13.18;5.82;;;;;;;;;;4992698;28;20120;-77
2023/07/05 05:24:42;;;;;;;12.15;6.65;;;;;;;;;;4991227;28;20042;-78
2023/07/05 05:27:08;;;;;;;7.07;6.25;;;;;;;;;;4992864;28;20038;-79
2023/07/05 05:29:34;;;;;;;9.50;6.25;;;;;;;;;;4992400;28;20484;-77
2023/07/05 05:32:00;;;;;;;8.80;6.45;;;;;;;;;;4991348;28;20053;-79
2023/07/05 05:34:26;;;;;;;7.85;5.78;;;;;;;;;;4992643;28;20039;-79
2023/07/05 05:36:52;;;;;;;11.77;6.55;;;;;;;;;;4990972;28;20038;-80
2023/07/05 05:39:19;;;;;;;8.65;6.75;;;;;;;;;;4991102;28;20030;-80
2023/07/05 05:41:45;;;;;;;7.30;5.85;;;;;;;;;;4990986;28;20037;-79
2023/07/05 05:44:11;;;;;;;9.38;6.35;;;;;;;;;;4990892;28;20050;-79
2023/07/05 05:46:37;;;;;;;12.00;7.03;;;;;;;;;;4990752;28;20081;-78
2023/07/05 05:49:03;;;;;;;11.40;6.32;;;;;;;;;;4991718;28;20671;-79
2023/07/05 05:51:29;;;;;;;8.18;6.40;;;;;;;;;;4991928;28;20050;-79
2023/07/05 05:53:55;;;;;;;6.72;6.03;;;;;;;;;;4991756;28;20042;-79
2023/07/05 05:56:21;;;;;;;9.07;6.35;;;;;;;;;;4992163;28;20501;-78
2023/07/05 05:58:47;;;;;;;13.57;6.15;;;;;;;;;;4991836;28;20049;-78
2023/07/05 06:01:13;;;;;;;10.63;6.05;;;;;;;;;;4992181;28;20101;-79
2023/07/05 06:03:39;;;;;;;8.38;5.65;;;;;;;;;;4991892;28;20044;-77
2023/07/05 06:06:05;;;;;;;8.45;6.22;;;;;;;;;;4992038;28;20046;-79
2023/07/05 06:08:35;;;;;;;7.38;6.47;;;;;;;;;;4992025;28;20497;-78
2023/07/05 06:11:02;;;;;;;11.73;7.13;;;;;;;;;;4991978;28;20513;-79
2023/07/05 06:13:28;;;;;;;7.18;6.25;;;;;;;;;;4992170;28;20034;-80
2023/07/05 06:15:55;;;;;;;16.88;6.95;;;;;;;;;;4991897;28;20121;-78
2023/07/05 06:18:21;;;;;;;9.75;6.60;;;;;;;;;;4990730;28;20038;-78
2023/07/05 06:20:47;;;;;;;12.18;6.07;;;;;;;;;;4990894;28;20053;-79
2023/07/05 06:23:13;;;;;;;7.80;5.90;;;;;;;;;;4990658;28;20505;-78
2023/07/05 06:25:39;;;;;;;7.70;6.43;;;;;;;;;;4992037;28;20082;-78
2023/07/05 06:28:05;;;;;;;17.13;7.22;;;;;;;;;;4990923;28;20128;-77
2023/07/05 06:30:31;;;;;;;22.30;7.43;;;;;;;;;;4993174;28;20105;-80
2023/07/05 06:32:57;;;;;;;18.00;7.95;;;;;;;;;;4992753;28;20153;-78
2023/07/05 06:35:23;;;;;;;10.68;7.15;;;;;;;;;;4994974;28;20070;-79
2023/07/05 06:37:49;;;;;;;9.88;6.57;;;;;;;;;;4994023;28;20065;-79
2023/07/05 06:40:15;;;;;;;21.95;7.38;;;;;;;;;;4998791;28;20046;-78
2023/07/05 06:42:41;;;;;;;19.77;6.47;;;;;;;;;;4998105;28;20038;-78
2023/07/05 06:45:13;;;;;;;26.05;7.80;;;;;;;;;;4997571;28;20509;-80
2023/07/05 06:47:39;;;;;;;13.65;6.53;;;;;;;;;;5001551;28;20039;-79
2023/07/05 06:50:05;;;;;;;16.13;6.60;;;;;;;;;;5001067;28;20065;-79
2023/07/05 06:52:32;;;;;;;8.25;6.00;;;;;;;;;;4991412;28;20089;-79
2023/07/05 06:54:58;;;;;;;7.90;6.40;;;;;;;;;;4990800;28;20632;-78
2023/07/05 06:57:24;;;;;;;9.90;6.50;;;;;;;;;;4991215;28;20433;-80
2023/07/05 06:59:50;;;;;;;9.52;6.80;;;;;;;;;;4991072;28;20086;-78
2023/07/05 07:02:16;;;;;;;7.78;6.40;;;;;;;;;;4990865;28;20038;-78
2023/07/05 07:04:42;;;;;;;8.02;5.90;;;;;;;;;;4990742;28;20034;-79
2023/07/05 07:07:10;;;;;;;9.18;5.80;;;;;;;;;;4989781;28;20417;-80
2023/07/05 07:09:36;;;;;;;18.45;5.95;;;;;;;;;;4991079;28;20038;-78
2023/07/05 07:12:02;;;;;;;11.15;6.20;;;;;;;;;;4990526;28;20038;-80
2023/07/05 07:14:29;;;;;;;9.55;6.05;;;;;;;;;;4990699;28;20117;-78
2023/07/05 07:16:55;;;;;;;7.65;5.90;;;;;;;;;;4990558;28;20523;-79
2023/07/05 07:19:21;;;;;;;6.78;5.30;;;;;;;;;;4989557;28;20037;-78
2023/07/05 07:21:48;;;;;;;17.50;6.35;;;;;;;;;;4990622;28;20064;-79
2023/07/05 07:24:15;;;;;;;8.38;5.45;;;;;;;;;;4990129;28;20034;-79
2023/07/05 07:26:40;;;;;;;11.65;5.70;;;;;;;;;;4990527;28;20404;-80
2023/07/05 07:29:08;;;;;;;6.28;5.43;;;;;;;;;;4990623;28;20035;-80
2023/07/05 07:31:34;;;;;;;6.53;5.30;;;;;;;;;;4989395;28;20425;-79
2023/07/05 07:34:02;;;;;;;6.07;5.47;;;;;;;;;;4989155;28;20038;-79
2023/07/05 07:36:28;;;;;;;9.32;6.00;;;;;;;;;;4990705;28;20050;-81
2023/07/05 07:38:54;;;;;;;13.55;6.47;;;;;;;;;;4988996;28;20052;-76
2023/07/05 07:41:22;;;;;;;8.80;5.38;;;;;;;;;;4990382;28;20632;-79
2023/07/05 07:43:50;;;;;;;8.57;5.43;;;;;;;;;;4990366;28;20042;-78
2023/07/05 07:46:16;;;;;;;8.18;5.80;;;;;;;;;;4990526;28;20035;-79
2023/07/05 07:48:43;;;;;;;9.85;5.35;;;;;;;;;;4990179;28;20077;-80
2023/07/05 07:51:09;;;;;;;6.28;5.68;;;;;;;;;;4973044;28;20046;-80
2023/07/05 07:53:35;;;;;;;8.63;5.68;;;;;;;;;;4988956;28;20428;-79
2023/07/05 07:56:08;;;;;;;13.35;6.07;;;;;;;;;;4990340;28;20054;-79
2023/07/05 07:58:34;;;;;;;7.05;5.28;;;;;;;;;;4990402;28;20035;-79
2023/07/05 08:01:09;;;;;;;9.18;5.00;;;;;;;;;;4990137;28;20461;-80
2023/07/05 08:03:35;;;;;;;14.60;5.85;;;;;;;;;;4990261;28;20038;-79
2023/07/05 08:06:01;;;;;;;7.25;5.68;;;;;;;;;;4990029;28;20038;-79
2023/07/05 08:08:27;;;;;;;8.13;6.45;;;;;;;;;;4988974;28;20138;-78
2023/07/05 08:10:53;;;;;;;7.53;5.85;;;;;;;;;;4990053;28;20042;-78
2023/07/05 08:13:19;;;;;;;7.50;5.82;;;;;;;;;;4972850;28;20092;-79
2023/07/05 08:15:45;;;;;;;10.70;6.07;;;;;;;;;;4972653;28;20625;-78
2023/07/05 08:18:11;;;;;;;7.25;6.05;;;;;;;;;;4990188;28;20505;-78
2023/07/05 08:20:37;;;;;;;6.75;6.10;;;;;;;;;;4972728;28;20042;-78
2023/07/05 08:23:05;;;;;;;9.23;6.38;;;;;;;;;;4989924;28;20117;-79
2023/07/05 08:25:33;;;;;;;8.13;5.88;;;;;;;;;;4989983;28;20509;-77
2023/07/05 08:28:00;;;;;;;9.30;5.90;;;;;;;;;;4989710;28;20082;-77
2023/07/05 08:30:26;;;;;;;7.88;6.15;;;;;;;;;;4990982;28;20061;-80
2023/07/05 08:32:53;;;;;;;8.48;6.00;;;;;;;;;;4989776;28;20034;-78
2023/07/05 08:35:19;;;;;;;7.80;6.00;;;;;;;;;;4989819;28;20113;-77
2023/07/05 08:37:48;;;;;;;8.70;6.60;;;;;;;;;;4991874;28;20097;-80
2023/07/05 08:40:15;;;;;;;8.10;7.00;;;;;;;;;;4992368;28;20049;-78
2023/07/05 08:42:44;;;;;;;7.30;6.20;;;;;;;;;;4993730;28;20069;-79
2023/07/05 08:45:29;;;;;;;9.23;6.80;;;;;;;;;;4996025;28;20049;-79
2023/07/05 08:47:55;;;;;;;11.02;6.55;;;;;;;;;;4991845;28;20046;-78
2023/07/05 08:50:23;;;;;;;11.98;6.45;;;;;;;;;;4992307;28;20042;-79
2023/07/05 08:52:49;;;;;;;11.43;6.80;;;;;;;;;;4991631;28;20153;-79
2023/07/05 08:55:40;;;;;;;8.07;6.82;;;;;;;;;;4992263;28;20042;-76
2023/07/05 08:58:06;;;;;;;11.32;6.50;;;;;;;;;;4991884;28;20031;-80
2023/07/05 09:00:40;;;;;;;13.13;6.63;;;;;;;;;;4992279;28;20509;-80
2023/07/05 09:03:10;;;;;;;12.55;6.63;;;;;;;;;;4992507;28;20555;-79
2023/07/05 09:05:35;;;;;;;;;;;;;;;;;;4992812;28;20045;-78
2023/07/05 09:08:07;;;;;;;6.18;5.50;;;;;;;;;;4992803;28;19921;-79
2023/07/05 09:10:37;;;;;;;12.27;6.30;;;;;;;;;;4993312;28;20048;-79
2023/07/05 09:13:22;;;;;;;11.10;6.82;;;;;;;;;;4991665;28;20035;-80
2023/07/05 09:15:51;;;;;;;9.75;6.80;;;;;;;;;;4991312;28;20034;-79
2023/07/05 09:18:36;;;;;;;10.60;6.43;;;;;;;;;;4991717;28;20067;-80
2023/07/05 09:21:02;;;;;;;8.07;6.50;;;;;;;;;;4992733;28;20409;-80
2023/07/05 09:23:38;;;;;;;5.65;5.15;;;;;;;;;;4992520;28;20034;-80
2023/07/05 09:26:15;;;;;;;7.80;6.65;;;;;;;;;;4992354;28;20101;-77
2023/07/05 09:28:49;;;;;;;6.72;5.88;;;;;;;;;;4975480;28;20046;-78
2023/07/05 09:31:16;;;;;;;8.75;6.60;;;;;;;;;;4991486;28;20452;-79
2023/07/05 09:33:46;;;;;;;7.43;6.65;;;;;;;;;;4975383;28;20038;-78
2023/07/05 09:36:16;;;;;;;11.85;6.63;;;;;;;;;;4991276;28;20505;-79
2023/07/05 09:38:43;;;;;;;8.38;7.20;;;;;;;;;;4991407;28;20038;-79
2023/07/05 09:41:14;;;;;;;7.82;6.75;;;;;;;;;;4992482;28;20061;-80
2023/07/05 09:43:40;;;;;;;7.20;6.50;;;;;;;;;;4991849;28;20046;-77
2023/07/05 09:46:09;;;;;;;9.45;6.75;;;;;;;;;;4993069;28;20038;-79
2023/07/05 09:48:36;;;;;;;;;;;;;;;;;;4983634;28;20042;-80
2023/07/05 09:51:03;;;;;;;11.52;6.47;;;;;;;;;;5002762;28;20231;-78
2023/07/05 09:53:39;;;;;;;9.02;7.38;;;;;;;;;;5001545;28;20050;-79
2023/07/05 09:56:13;;;;;;;7.97;6.90;;;;;;;;;;4992902;28;20053;-80
2023/07/05 09:58:39;;;;;;;9.55;7.00;;;;;;;;;;4990959;28;20089;-79
2023/07/05 10:01:06;;;;;;;7.93;7.03;;;;;;;;;;4992373;28;20049;-79
2023/07/05 10:03:36;;;;;;;8.77;7.75;;;;;;;;;;4975011;28;20031;-80
2023/07/05 10:06:07;;;;;;;10.73;7.93;;;;;;;;;;4991949;28;20057;-79
2023/07/05 10:08:44;;;;;;;11.73;6.90;;;;;;;;;;4990868;28;20546;-79
2023/07/05 10:11:19;;;;;;;13.50;6.85;;;;;;;;;;4991598;28;20042;-79
2023/07/05 10:13:45;;;;;;;13.10;6.90;;;;;;;;;;4991855;28;20122;-79
2023/07/05 10:16:11;;;;;;;7.93;7.10;;;;;;;;;;4991893;28;20033;-79
2023/07/05 10:18:39;;;;;;;8.07;6.72;;;;;;;;;;4992398;28;20417;-79
2023/07/05 10:21:09;;;;;;;8.43;6.88;;;;;;;;;;4991140;28;20041;-79
2023/07/05 10:23:35;;;;;;;10.35;7.13;;;;;;;;;;4974914;28;20050;-79
2023/07/05 10:26:01;;;;;;;11.98;7.63;;;;;;;;;;4991623;28;20076;-78
2023/07/05 10:28:29;;;;;;;8.43;6.38;;;;;;;;;;4991830;28;20136;-81
2023/07/05 10:30:56;;;;;;;7.88;6.50;;;;;;;;;;4991503;28;20050;-80
2023/07/05 10:33:29;;;;;;;12.68;7.70;;;;;;;;;;4991812;28;20046;-80
2023/07/05 10:35:57;;;;;;;20.08;7.70;;;;;;;;;;4990625;28;20413;-78
2023/07/05 10:38:24;;;;;;;11.70;7.25;;;;;;;;;;4992053;28;20689;-79
2023/07/05 10:40:51;;;;;;;8.50;7.15;;;;;;;;;;4991473;28;20519;-80
2023/07/05 10:43:17;;;;;;;14.07;6.85;;;;;;;;;;4991561;28;20041;-79
2023/07/05 10:45:43;;;;;;;11.68;7.78;;;;;;;;;;4991938;28;20425;-79
2023/07/05 10:48:14;;;;;;;14.30;7.45;;;;;;;;;;4990032;28;20450;-80
2023/07/05 10:50:40;;;;;;;11.60;7.68;;;;;;;;;;4990419;28;20046;-79
2023/07/05 10:53:10;;;;;;;12.60;7.05;;;;;;;;;;4990809;28;20050;-78
2023/07/05 10:55:36;;;;;;;;;;;;;;;;;;4990439;28;20050;-78
2023/07/05 10:58:06;;;;;;;17.25;8.23;;;;;;;;;;4988876;28;19913;-80
2023/07/05 11:00:37;;;;;;;13.68;8.30;;;;;;;;;;4973941;28;20034;-81
2023/07/05 11:03:15;;;;;;;8.30;7.50;;;;;;;;;;4989912;28;20126;-81
2023/07/05 11:05:42;;;;;;;11.23;6.63;;;;;;;;;;4990341;28;20117;-81
2023/07/05 11:08:28;;;;;;;9.07;7.45;;;;;;;;;;4973407;28;20080;-78
2023/07/05 11:10:55;;;;;;;8.48;7.18;;;;;;;;;;4990715;28;20046;-80
2023/07/05 11:13:21;;;;;;;7.80;7.10;;;;;;;;;;4989731;28;20042;-80
2023/07/05 11:15:47;;;;;;;10.68;7.00;;;;;;;;;;4991352;28;20501;-80
2023/07/05 11:18:17;;;;;;;11.30;7.70;;;;;;;;;;4989715;28;20034;-80
2023/07/05 11:20:47;;;;;;;10.70;8.60;;;;;;;;;;4973982;28;20066;-82
2023/07/05 11:23:13;;;;;;;15.98;8.27;;;;;;;;;;4991754;28;20034;-81
2023/07/05 11:25:55;;;;;;;15.50;8.98;;;;;;;;;;4975619;28;20046;-81
2023/07/05 11:28:31;;;;;;;9.73;8.75;;;;;;;;;;4994213;28;20045;-81
2023/07/05 11:30:57;;;;;;;14.43;8.65;;;;;;;;;;4991526;28;20112;-81
2023/07/05 11:33:23;;;;;;;10.35;8.70;;;;;;;;;;4989860;28;20041;-80
2023/07/05 11:35:50;;;;;;;14.20;9.23;;;;;;;;;;4991292;28;20038;-81
2023/07/05 11:38:35;;;;;;;11.32;9.35;;;;;;;;;;4990512;28;20080;-80
2023/07/05 11:41:03;;;;;;;9.70;8.77;;;;;;;;;;4991141;28;20088;-81
2023/07/05 11:43:36;;;;;;;9.77;8.85;;;;;;;;;;4991021;28;20031;-81
2023/07/05 11:46:26;;;;;;;11.20;7.60;;;;;;;;;;4973097;28;20409;-80
2023/07/05 11:48:53;;;;;;;11.73;9.52;;;;;;;;;;4983127;28;20133;-80
2023/07/05 11:51:29;;;;;;;9.15;8.45;;;;;;;;;;4989122;28;20042;-80
2023/07/05 11:53:55;;;;;;;16.92;8.70;;;;;;;;;;4990591;28;20046;-80
2023/07/05 11:56:21;;;;;;;13.50;9.27;;;;;;;;;;4989137;28;20108;-79
2023/07/05 11:58:50;;;;;;;9.50;8.68;;;;;;;;;;4989186;28;20529;-79
2023/07/05 12:01:18;;;;;;;10.32;9.10;;;;;;;;;;4990249;28;20448;-79
2023/07/05 12:03:51;;;;;;;10.60;8.85;;;;;;;;;;4989276;28;20050;-80
2023/07/05 12:06:19;;;;;;;14.60;9.00;;;;;;;;;;4989059;28;20092;-78
2023/07/05 12:09:04;;;;;;;9.95;7.82;;;;;;;;;;4989187;28;20559;-78
2023/07/05 12:11:31;;;;;;;11.13;8.32;;;;;;;;;;4993059;28;20428;-79
2023/07/05 12:14:01;;;;;;;12.45;8.98;;;;;;;;;;4992855;28;20027;-79
2023/07/05 12:16:28;;;;;;;11.90;8.75;;;;;;;;;;4992975;28;20038;-79
2023/07/05 12:18:54;;;;;;;10.95;8.27;;;;;;;;;;4994068;28;20414;-79
2023/07/05 12:21:20;;;;;;;8.90;7.72;;;;;;;;;;4992530;28;20415;-79
2023/07/05 12:23:46;;;;;;;8.35;7.65;;;;;;;;;;4993828;28;20034;-78
2023/07/05 12:26:17;;;;;;;9.23;7.32;;;;;;;;;;4992537;28;20425;-78
2023/07/05 12:28:44;;;;;;;10.50;6.78;;;;;;;;;;4992812;28;20038;-79
2023/07/05 12:31:10;;;;;;;6.88;6.28;;;;;;;;;;4992284;28;20085;-80
2023/07/05 12:33:36;;;;;;;5.95;5.45;;;;;;;;;;4993775;28;20034;-78
2023/07/05 12:36:04;;;;;;;6.15;5.65;;;;;;;;;;4993803;28;20038;-79
2023/07/05 12:38:29;;;;;;;6.38;5.88;;;;;;;;;;4993825;28;20061;-79
2023/07/05 12:40:55;;;;;;;7.68;5.55;;;;;;;;;;4993918;28;20887;-79
2023/07/05 12:43:22;;;;;;;5.50;4.95;;;;;;;;;;4992708;28;20045;-79
2023/07/05 12:45:48;;;;;;;8.35;6.30;;;;;;;;;;4994281;28;20125;-79
2023/07/05 12:48:15;;;;;;;6.43;5.68;;;;;;;;;;4994548;28;20065;-79
2023/07/05 12:50:41;;;;;;;6.97;5.15;;;;;;;;;;4995490;28;20046;-79
2023/07/05 12:53:12;;;;;;;5.90;5.35;;;;;;;;;;4997003;28;20070;-79
2023/07/05 12:55:39;;;;;;;6.20;5.60;;;;;;;;;;4999979;28;20038;-78
2023/07/05 12:58:06;;;;;;;8.50;5.45;;;;;;;;;;5003301;28;20125;-78
2023/07/05 13:00:32;;;;;;;5.40;5.00;;;;;;;;;;4993662;28;20069;-79
2023/07/05 13:03:00;;;;;;;6.68;5.00;;;;;;;;;;4992071;28;20528;-79
2023/07/05 13:05:27;;;;;;;14.88;4.75;;;;;;;;;;4993260;28;20603;-80
2023/07/05 13:07:53;;;;;;;7.57;5.30;;;;;;;;;;4991911;28;20129;-79
2023/07/05 13:10:19;;;;;;;6.25;5.32;;;;;;;;;;4992800;28;20136;-81
2023/07/05 13:12:49;;;;;;;5.95;5.35;;;;;;;;;;4993286;28;20042;-78
2023/07/05 13:15:15;;;;;;;5.93;5.43;;;;;;;;;;4992750;28;20046;-80
2023/07/05 13:17:41;;;;;;;5.70;5.15;;;;;;;;;;4991867;28;20045;-79
2023/07/05 13:20:14;;;;;;;5.35;4.93;;;;;;;;;;4992521;28;20409;-80
2023/07/05 13:22:41;;;;;;;5.85;5.05;;;;;;;;;;4992558;28;20042;-80
2023/07/05 13:25:26;;;;;;;8.00;5.55;;;;;;;;;;4992549;28;20575;-80
2023/07/05 13:27:53;;;;;;;7.03;4.70;;;;;;;;;;4992759;28;20095;-79
2023/07/05 13:30:19;;;;;;;6.13;5.20;;;;;;;;;;4991490;28;20050;-79
2023/07/05 13:32:47;;;;;;;12.43;5.45;;;;;;;;;;4992715;28;20049;-80
2023/07/05 13:35:13;;;;;;;5.50;5.00;;;;;;;;;;4993013;28;20034;-79
2023/07/05 13:37:38;;;;;;;6.68;6.00;;;;;;;;;;4992916;28;20057;-77
2023/07/05 13:40:08;;;;;;;9.65;5.63;;;;;;;;;;4990843;28;20117;-79
2023/07/05 13:42:35;;;;;;;6.50;5.90;;;;;;;;;;4992457;28;20069;-79
2023/07/05 13:45:03;;;;;;;8.95;6.05;;;;;;;;;;4992310;28;20046;-79
2023/07/05 13:47:31;;;;;;;7.85;6.03;;;;;;;;;;4992429;28;20034;-79
2023/07/05 13:49:57;;;;;;;7.00;6.30;;;;;;;;;;4974680;28;20046;-78
2023/07/05 13:52:24;;;;;;;6.70;6.07;;;;;;;;;;4991767;28;20062;-79
2023/07/05 13:54:50;;;;;;;6.93;6.22;;;;;;;;;;4992003;28;20066;-79
2023/07/05 13:57:16;;;;;;;6.53;5.93;;;;;;;;;;4992029;28;20045;-79
2023/07/05 13:59:42;;;;;;;9.25;5.93;;;;;;;;;;4992142;28;20426;-79
2023/07/05 14:02:28;;;;;;;10.60;6.00;;;;;;;;;;4990703;28;20121;-77
2023/07/05 14:04:55;;;;;;;7.15;5.38;;;;;;;;;;4991965;28;20512;-80
2023/07/05 14:07:21;;;;;;;6.72;5.60;;;;;;;;;;4992876;28;20081;-78
2023/07/05 14:09:47;;;;;;;10.85;5.93;;;;;;;;;;4990986;28;20104;-79
2023/07/05 14:12:16;;;;;;;13.45;5.68;;;;;;;;;;4992055;28;20046;-79
2023/07/05 14:14:42;;;;;;;6.03;5.53;;;;;;;;;;4991908;28;20529;-78
2023/07/05 14:17:15;;;;;;;5.82;5.05;;;;;;;;;;4991852;28;20046;-79
2023/07/05 14:19:42;;;;;;;6.22;5.22;;;;;;;;;;4990691;28;20045;-78
2023/07/05 14:22:26;;;;;;;5.55;4.85;;;;;;;;;;4990445;28;20034;-80
2023/07/05 14:24:52;;;;;;;5.57;5.13;;;;;;;;;;4991751;28;20034;-79
2023/07/05 14:27:20;;;;;;;6.93;5.78;;;;;;;;;;4991330;28;20038;-79
2023/07/05 14:29:46;;;;;;;7.28;5.72;;;;;;;;;;4991528;28;20038;-78
2023/07/05 14:32:12;;;;;;;7.78;5.60;;;;;;;;;;4991297;28;20068;-80
2023/07/05 14:34:38;;;;;;;7.20;5.47;;;;;;;;;;4991284;28;20034;-80
2023/07/05 14:37:04;;;;;;;7.13;6.18;;;;;;;;;;4990169;28;20552;-79
2023/07/05 14:39:31;;;;;;;6.55;5.65;;;;;;;;;;4989837;28;20035;-78
2023/07/05 14:41:56;;;;;;;10.82;5.70;;;;;;;;;;4991206;28;20046;-78
2023/07/05 14:44:22;;;;;;;7.82;5.32;;;;;;;;;;4990954;28;20382;-79